This is the latest recevied weather packets stored in our database for station/object DB0ADS-6. If no packets are shown the sender has not sent any weather packets the latest 1 day(s).
| Time | Temp. | Humidity | Pressure | Rain* | Wind** | Luminosity | Snow |
|---|---|---|---|---|---|---|---|
| 1778096725 | 12.22° C | 85% | 1005 hPa | 0 mm | - | - | - |
| 1778096423 | 12.22° C | 86% | 1004.9 hPa | 0 mm | - | - | - |
| 1778094975 | 12.78° C | 85% | 1004.8 hPa | 0 mm | - | - | - |
| 1778094070 | 12.78° C | 84% | 1004.6 hPa | 0 mm | - | - | - |
| 1778092883 | 12.78° C | 81% | 1004.2 hPa | 0 mm | - | - | - |
| 1778091354 | 13.33° C | 76% | 1003.9 hPa | 0 mm | - | - | - |
| 1778090449 | 13.33° C | 74% | 1003.7 hPa | 0 mm | - | - | - |
| 1778089242 | 13.89° C | 77% | 1003.6 hPa | 0 mm | - | - | - |
| 1778088337 | 13.89° C | 78% | 1003.5 hPa | 0 mm | - | - | - |
| 1778088035 | 13.89° C | 77% | 1003.4 hPa | 0 mm | - | - | - |
| 1778087737 | 13.89° C | 79% | 1003.4 hPa | 0 mm | - | - | - |
| 1778086225 | 13.89° C | 79% | 1003.2 hPa | 0 mm | - | - | - |
| 1778085320 | 14.44° C | 77% | 1003.2 hPa | 0 mm | - | - | - |
| 1778083268 | 13.89° C | 79% | 1003.3 hPa | 0.25 mm | - | - | - |
| 1778082363 | 13.89° C | 81% | 1003.5 hPa | 0.25 mm | - | - | - |
| 1778082061 | 13.89° C | 80% | 1003.6 hPa | 0.25 mm | - | - | - |
| 1778081183 | 13.89° C | 77% | 1003.7 hPa | 0.25 mm | - | - | - |
| 1778080854 | 14.44° C | 77% | 1003.7 hPa | 0.25 mm | - | - | - |
| 1778079044 | 16.11° C | 65% | 1003.5 hPa | 0 mm | - | - | - |
| 1778078742 | 16.11° C | 64% | 1003.4 hPa | 0 mm | - | - | - |
| 1778077837 | 16.67° C | 62% | 1003.4 hPa | 0 mm | - | - | - |
| 1778076630 | 16.67° C | 62% | 1003.4 hPa | 0 mm | - | - | - |
| 1778073391 | 17.22° C | 60% | 1003.5 hPa | 0 mm | - | - | - |
| 1778073069 | 17.22° C | 59% | 1003.5 hPa | 0 mm | - | - | - |
| 1778071883 | 17.22° C | 59% | 1003.6 hPa | 0 mm | - | - | - |
* Rain latest hour (hover to see other rain measurements)
** Current wind speed in m/s (hover to see current wind gust speed)